Time;durP1;ratioP1;P1;durP2;ratioP2;P2;SDS_P1;SDS_P2;PMS_P1;PMS_P2;Temp;Humidity;BMP_temperature;BMP_pressure;BME280_temperature;BME280_humidity;BME280_pressure;Samples;Min_cycle;Max_cycle;Signal;HPM_P1;HPM_P2
2021/01/02 00:01:37;;;;;;;18.85;7.78;;;7.50;65.30;;;;;;6314507;28;20055;-80
2021/01/02 00:04:54;;;;;;;12.23;6.80;;;7.50;65.30;;;;;;6304330;28;20059;-81
2021/01/02 00:08:08;;;;;;;15.85;6.93;;;7.50;65.30;;;;;;6267114;28;20047;-81
2021/01/02 00:11:37;;;;;;;12.63;6.50;;;7.50;65.30;;;;;;6300401;28;20120;-81
2021/01/02 00:15:23;;;;;;;15.75;7.53;;;7.60;65.40;;;;;;6255625;28;20216;-81
2021/01/02 00:18:37;;;;;;;15.32;7.45;;;7.60;65.40;;;;;;6118418;28;20050;-81
2021/01/02 00:21:48;;;;;;;18.85;7.30;;;7.60;65.30;;;;;;6135404;28;20044;-82
2021/01/02 00:24:56;;;;;;;12.38;6.55;;;7.60;65.30;;;;;;6150954;28;20066;-81
2021/01/02 00:28:22;;;;;;;14.55;7.13;;;7.70;65.30;;;;;;6144545;28;20122;-81
2021/01/02 00:32:02;;;;;;;17.10;7.60;;;7.70;65.40;;;;;;6127607;29;20124;-81
2021/01/02 00:35:04;;;;;;;;;;;7.70;65.30;;;;;;6118574;29;20316;-79
2021/01/02 00:38:08;;;;;;;16.42;6.53;;;7.70;65.20;;;;;;6127822;29;19949;-80
2021/01/02 00:41:11;;;;;;;14.82;7.10;;;7.70;65.10;;;;;;6142964;28;20139;-81
2021/01/02 00:48:59;;;;;;;16.25;6.35;;;7.60;65.10;;;;;;6168579;28;20026;-80
2021/01/02 00:52:26;;;;;;;14.10;6.18;;;7.60;65.30;;;;;;6199143;28;20049;-80
2021/01/02 00:55:54;;;;;;;12.43;6.60;;;7.50;65.40;;;;;;6249739;28;20035;-80
2021/01/02 00:59:14;;;;;;;14.50;7.00;;;7.50;65.70;;;;;;6210892;28;20452;-80
2021/01/02 01:02:28;;;;;;;;;;;7.50;65.70;;;;;;6239394;28;20026;-80
2021/01/02 01:05:34;;;;;;;12.63;5.82;;;7.50;65.60;;;;;;6256530;28;19909;-81
2021/01/02 01:08:35;;;;;;;17.38;7.97;;;7.50;65.50;;;;;;6239583;28;20434;-81
2021/01/02 01:11:38;;;;;;;15.85;7.18;;;7.50;65.50;;;;;;6207950;28;20034;-81
2021/01/02 01:14:39;;;;;;;14.60;6.75;;;7.50;65.70;;;;;;6223879;28;20030;-81
2021/01/02 01:18:02;;;;;;;14.75;7.20;;;7.60;65.70;;;;;;6207660;28;20399;-81
2021/01/02 01:21:09;;;;;;;16.23;6.22;;;7.50;65.80;;;;;;6191585;28;20061;-81
2021/01/02 01:24:12;;;;;;;14.55;6.35;;;7.60;65.70;;;;;;6213923;28;20103;-81
2021/01/02 01:27:15;;;;;;;11.73;6.63;;;7.60;65.70;;;;;;6239696;28;20033;-81
2021/01/02 01:30:21;;;;;;;10.73;5.78;;;7.60;65.60;;;;;;6280963;28;20063;-81
2021/01/02 01:33:28;;;;;;;12.30;6.70;;;7.60;65.60;;;;;;6282289;28;20043;-81
2021/01/02 01:36:35;;;;;;;12.02;5.97;;;7.60;65.50;;;;;;6298737;28;20152;-80
2021/01/02 01:39:39;;;;;;;11.55;5.97;;;7.60;65.40;;;;;;6280826;28;20028;-81
2021/01/02 01:42:40;;;;;;;14.70;6.55;;;7.70;65.40;;;;;;6298328;28;20371;-81
2021/01/02 01:46:11;;;;;;;10.80;5.65;;;7.70;65.40;;;;;;6296848;28;20041;-81
2021/01/02 01:49:30;;;;;;;14.77;6.32;;;7.70;65.40;;;;;;6173284;28;20093;-81
2021/01/02 01:52:51;;;;;;;10.90;5.63;;;7.70;65.40;;;;;;6143073;28;20046;-80
2021/01/02 01:56:03;;;;;;;11.43;6.18;;;7.70;65.40;;;;;;6173211;28;20035;-81
2021/01/02 01:59:28;;;;;;;11.73;6.25;;;7.70;65.30;;;;;;6161736;28;20039;-80
2021/01/02 02:02:47;;;;;;;12.88;7.03;;;7.70;65.40;;;;;;6157726;28;20043;-81
2021/01/02 02:05:50;;;;;;;11.43;6.18;;;7.70;65.40;;;;;;6140238;28;20023;-82
2021/01/02 02:08:58;;;;;;;12.60;6.43;;;7.70;65.50;;;;;;6157289;28;20049;-81
2021/01/02 02:12:04;;;;;;;15.82;6.78;;;7.70;65.60;;;;;;6157094;28;20476;-81
2021/01/02 02:15:10;;;;;;;16.98;6.68;;;7.70;65.60;;;;;;6158633;28;20051;-81
2021/01/02 02:18:18;;;;;;;14.02;6.97;;;7.70;65.50;;;;;;6163716;28;20310;-81
2021/01/02 02:21:27;;;;;;;12.55;6.55;;;7.70;65.60;;;;;;6144069;28;20134;-81
2021/01/02 02:24:31;;;;;;;11.88;6.43;;;7.70;65.60;;;;;;6168114;28;20093;-80
2021/01/02 02:27:37;;;;;;;15.30;7.25;;;7.70;65.70;;;;;;6202955;28;20350;-81
2021/01/02 02:30:46;;;;;;;16.05;7.22;;;7.70;65.70;;;;;;6241344;28;20442;-81
2021/01/02 02:33:58;;;;;;;17.10;8.15;;;7.60;65.90;;;;;;6228750;28;20358;-81
2021/01/02 02:36:59;;;;;;;16.05;6.95;;;7.60;65.90;;;;;;6244533;28;20342;-80
2021/01/02 02:39:59;;;;;;;16.80;8.63;;;7.70;65.90;;;;;;6229641;28;20037;-80
2021/01/02 02:43:03;;;;;;;13.48;7.15;;;7.70;65.90;;;;;;6231108;28;20064;-82
2021/01/02 02:46:07;;;;;;;18.02;7.72;;;7.70;65.90;;;;;;6231228;28;20029;-80
2021/01/02 02:49:11;;;;;;;17.50;8.02;;;7.80;66.00;;;;;;6203803;28;20520;-80
2021/01/02 02:52:24;;;;;;;13.60;6.20;;;7.70;65.80;;;;;;6237477;28;20117;-80
2021/01/02 02:55:25;;;;;;;15.93;6.65;;;7.80;65.80;;;;;;6218118;28;20077;-80
2021/01/02 02:58:29;;;;;;;6.00;3.40;;;7.70;66.60;;;;;;6260686;28;20109;-80
2021/01/02 03:01:31;;;;;;;8.15;3.60;;;7.70;65.60;;;;;;6228809;28;20044;-80
2021/01/02 03:04:33;;;;;;;7.45;3.40;;;7.70;65.40;;;;;;6229785;28;20025;-80
2021/01/02 03:07:44;;;;;;;4.57;2.33;;;7.70;65.20;;;;;;6229558;28;20056;-81
2021/01/02 03:10:45;;;;;;;5.95;3.28;;;7.60;65.00;;;;;;6234317;28;20147;-81
2021/01/02 03:13:46;;;;;;;6.13;3.42;;;7.70;64.80;;;;;;6234889;28;20080;-80
2021/01/02 03:16:47;;;;;;;12.05;3.58;;;7.70;64.50;;;;;;6249443;28;20092;-81
2021/01/02 03:19:48;;;;;;;7.85;3.60;;;7.70;64.30;;;;;;6233619;28;20082;-81
2021/01/02 03:22:50;;;;;;;12.40;5.10;;;7.70;64.10;;;;;;6253774;28;20361;-82
2021/01/02 03:25:51;;;;;;;14.93;7.05;;;7.70;63.90;;;;;;6253058;28;20087;-80
2021/01/02 03:28:52;;;;;;;13.30;5.47;;;7.70;64.10;;;;;;6258785;28;20095;-80
2021/01/02 03:31:53;;;;;;;11.65;4.95;;;7.70;64.20;;;;;;6255319;28;20101;-80
2021/01/02 03:34:54;;;;;;;8.82;4.05;;;7.70;64.30;;;;;;6226622;28;20446;-80
2021/01/02 03:37:55;;;;;;;8.55;4.03;;;7.70;64.10;;;;;;6238529;28;20121;-80
2021/01/02 03:40:56;;;;;;;14.15;5.32;;;7.70;63.80;;;;;;6251978;28;20048;-80
2021/01/02 03:43:58;;;;;;;10.13;4.40;;;7.70;63.60;;;;;;6241378;28;20354;-80
2021/01/02 03:47:04;;;;;;;10.52;4.28;;;7.70;63.70;;;;;;6234139;28;20378;-80
2021/01/02 03:50:06;;;;;;;11.15;4.95;;;7.70;63.60;;;;;;6231223;28;20034;-80
2021/01/02 03:53:07;;;;;;;10.88;4.50;;;7.70;63.50;;;;;;6234444;28;20045;-81
2021/01/02 03:56:11;;;;;;;8.77;4.30;;;7.70;63.50;;;;;;6230420;28;20038;-81
2021/01/02 03:59:12;;;;;;;10.40;5.13;;;7.70;63.30;;;;;;6247609;28;20041;-81
2021/01/02 04:02:13;;;;;;;8.65;4.72;;;7.70;63.30;;;;;;6275518;28;20455;-81
2021/01/02 04:05:14;;;;;;;10.88;4.57;;;7.60;63.10;;;;;;6257216;28;20087;-81
2021/01/02 04:08:15;;;;;;;11.18;4.97;;;7.60;63.10;;;;;;6276400;28;20037;-81
2021/01/02 04:11:16;;;;;;;10.55;5.63;;;7.60;63.10;;;;;;6260112;28;20091;-81
2021/01/02 04:14:17;;;;;;;11.07;4.90;;;7.70;63.10;;;;;;6259088;28;20107;-81
2021/01/02 04:17:18;;;;;;;11.43;4.93;;;7.60;62.90;;;;;;6266292;28;20454;-81
2021/01/02 04:20:19;;;;;;;11.25;5.18;;;7.60;62.90;;;;;;6250914;28;20048;-81
2021/01/02 04:23:21;;;;;;;12.15;4.80;;;7.60;62.90;;;;;;6262089;28;20122;-80
2021/01/02 04:26:22;;;;;;;12.43;5.80;;;7.60;62.70;;;;;;6288639;28;20425;-80
2021/01/02 04:29:23;;;;;;;12.95;5.68;;;7.60;62.60;;;;;;6291930;28;20032;-82
2021/01/02 04:32:24;;;;;;;11.25;5.03;;;7.50;62.70;;;;;;6284125;28;20059;-81
2021/01/02 04:35:25;;;;;;;13.80;5.93;;;7.50;62.70;;;;;;6282349;28;20028;-81
2021/01/02 04:38:26;;;;;;;13.93;5.68;;;7.50;62.80;;;;;;6315419;28;20037;-81
2021/01/02 04:41:28;;;;;;;12.55;5.47;;;7.40;62.70;;;;;;6296965;28;20044;-81
2021/01/02 04:44:31;;;;;;;17.27;6.28;;;7.40;62.80;;;;;;6304790;28;20028;-81
2021/01/02 04:47:32;;;;;;;12.05;5.65;;;7.40;62.80;;;;;;6282833;28;20041;-81
2021/01/02 04:50:34;;;;;;;18.95;6.43;;;7.30;62.80;;;;;;6296657;28;20029;-80
2021/01/02 04:53:35;;;;;;;15.95;6.15;;;7.30;62.90;;;;;;6282694;28;20037;-81
2021/01/02 04:56:38;;;;;;;12.10;5.53;;;7.30;62.90;;;;;;6257674;28;20033;-81
2021/01/02 04:59:41;;;;;;;16.30;6.10;;;7.30;62.80;;;;;;6276843;28;20119;-81
2021/01/02 05:02:44;;;;;;;16.73;7.00;;;7.30;62.80;;;;;;6283342;28;20483;-80
2021/01/02 05:05:49;;;;;;;16.20;6.13;;;7.30;62.80;;;;;;6283057;28;20040;-80
2021/01/02 05:08:50;;;;;;;15.07;6.63;;;7.20;62.70;;;;;;6266277;28;20032;-81
2021/01/02 05:11:51;;;;;;;13.73;6.47;;;7.10;62.70;;;;;;6283167;28;20063;-80
2021/01/02 05:15:07;;;;;;;16.25;6.43;;;7.10;62.80;;;;;;6282919;28;20029;-81
2021/01/02 05:18:08;;;;;;;13.43;5.70;;;7.10;62.80;;;;;;6281061;28;20394;-81
2021/01/02 05:21:09;;;;;;;12.88;5.50;;;7.10;62.90;;;;;;6282314;28;20033;-81
2021/01/02 05:24:15;;;;;;;18.73;7.20;;;7.00;62.80;;;;;;6296922;28;20071;-81
2021/01/02 05:27:18;;;;;;;14.55;5.50;;;7.00;62.80;;;;;;6269424;28;20445;-81
2021/01/02 05:30:26;;;;;;;16.35;5.95;;;7.00;62.80;;;;;;6249104;28;20037;-81
2021/01/02 05:33:26;;;;;;;13.18;5.93;;;7.00;63.00;;;;;;6249074;28;20372;-80
2021/01/02 05:36:27;;;;;;;17.35;6.10;;;6.90;63.00;;;;;;6250789;28;20037;-81
2021/01/02 05:39:43;;;;;;;10.52;5.03;;;6.90;63.00;;;;;;6255925;28;20049;-80
2021/01/02 05:42:47;;;;;;;16.52;5.57;;;6.80;64.10;;;;;;6233359;28;20080;-81
2021/01/02 05:45:50;;;;;;;15.90;6.38;;;6.80;63.30;;;;;;6230974;28;20052;-81
2021/01/02 05:48:51;;;;;;;9.88;5.60;;;6.70;63.30;;;;;;6231186;28;20025;-81
2021/01/02 05:51:56;;;;;;;14.98;6.00;;;6.70;63.30;;;;;;6229750;28;20053;-80
2021/01/02 05:54:57;;;;;;;15.73;5.93;;;6.70;63.30;;;;;;6214672;28;20037;-81
2021/01/02 05:58:17;;;;;;;12.73;5.90;;;6.70;63.20;;;;;;6231793;28;20503;-80
2021/01/02 06:01:19;;;;;;;18.48;5.97;;;6.70;63.30;;;;;;6247988;28;20080;-80
2021/01/02 06:04:20;;;;;;;15.82;6.40;;;6.70;63.20;;;;;;6248143;28;20113;-81
2021/01/02 06:07:38;;;;;;;14.65;5.30;;;6.60;63.10;;;;;;6172676;28;20033;-82
2021/01/02 06:11:05;;;;;;;11.10;4.63;;;6.60;63.20;;;;;;6190046;28;20033;-82
2021/01/02 06:18:23;;;;;;;12.93;5.13;;;6.60;63.40;;;;;;5997057;29;20081;-81
2021/01/02 06:21:50;;;;;;;11.63;6.15;;;6.50;63.40;;;;;;6000205;29;20344;-82
2021/01/02 06:25:10;;;;;;;5.93;3.78;;;6.70;63.60;;;;;;6051118;29;21484;-81
2021/01/02 06:37:16;;;;;;;9.98;4.80;;;6.50;63.40;;;;;;5813816;30;20039;-80
2021/01/02 06:40:33;;;;;;;13.90;5.80;;;6.40;63.70;;;;;;5955819;29;20481;-81
2021/01/02 06:43:39;;;;;;;12.05;5.47;;;6.40;63.90;;;;;;5954558;29;20031;-79
2021/01/02 06:46:41;;;;;;;13.27;6.55;;;6.40;63.90;;;;;;5979159;29;20035;-80
2021/01/02 06:49:43;;;;;;;15.70;7.40;;;6.50;63.80;;;;;;5962483;29;20034;-81
2021/01/02 06:52:44;;;;;;;17.30;6.03;;;6.50;63.80;;;;;;6023594;29;20029;-81
2021/01/02 06:55:55;;;;;;;19.48;6.55;;;6.50;63.80;;;;;;6078522;29;20537;-81
2021/01/02 06:58:57;;;;;;;16.13;6.90;;;6.50;63.80;;;;;;6092721;29;20024;-81
2021/01/02 07:01:58;;;;;;;13.80;6.03;;;6.50;63.80;;;;;;6102488;29;20048;-81
2021/01/02 07:04:59;;;;;;;16.00;6.35;;;6.50;63.70;;;;;;6109718;29;20032;-81
2021/01/02 07:08:00;;;;;;;14.68;6.57;;;6.50;64.60;;;;;;6150386;28;20046;-80
2021/01/02 07:11:31;;;;;;;14.02;5.93;;;6.50;63.80;;;;;;6219979;28;20073;-81
2021/01/02 07:14:32;;;;;;;12.02;3.92;;;6.40;63.80;;;;;;6203450;28;20049;-81
2021/01/02 07:17:33;;;;;;;13.63;5.97;;;6.40;63.80;;;;;;6129165;28;20061;-80
2021/01/02 07:20:35;;;;;;;17.42;5.63;;;6.40;63.80;;;;;;6203404;28;20063;-82
2021/01/02 07:23:36;;;;;;;11.52;5.28;;;6.30;63.90;;;;;;6204510;28;20030;-81
2021/01/02 07:26:40;;;;;;;15.85;5.97;;;6.30;63.90;;;;;;6236957;28;20042;-80
2021/01/02 07:29:49;;;;;;;19.25;7.30;;;6.40;64.00;;;;;;6281640;28;20060;-80
2021/01/02 07:32:51;;;;;;;13.52;7.10;;;6.30;63.90;;;;;;6285583;28;20029;-80
2021/01/02 07:35:52;;;;;;;14.23;6.32;;;6.30;63.80;;;;;;6275296;28;20442;-80
2021/01/02 07:38:53;;;;;;;12.18;4.80;;;6.30;63.90;;;;;;6254325;28;20033;-81
2021/01/02 07:41:59;;;;;;;13.15;5.85;;;6.30;64.00;;;;;;6269545;28;20053;-80
2021/01/02 07:45:07;;;;;;;19.45;7.68;;;6.30;64.00;;;;;;6251139;28;20126;-81
2021/01/02 07:48:09;;;;;;;8.00;3.88;;;6.20;64.00;;;;;;6278475;28;20424;-80
2021/01/02 07:51:17;;;;;;;16.20;7.30;;;6.30;64.20;;;;;;6253744;28;20106;-81
2021/01/02 07:54:35;;;;;;;14.85;6.82;;;6.30;64.30;;;;;;6270720;28;20041;-82
2021/01/02 07:57:36;;;;;;;10.52;4.45;;;6.30;64.40;;;;;;6256671;28;20416;-80
2021/01/02 08:00:37;;;;;;;12.20;5.55;;;6.30;64.30;;;;;;6299333;28;20086;-80
2021/01/02 08:03:39;;;;;;;9.85;5.20;;;6.30;64.10;;;;;;6299596;28;20056;-81
2021/01/02 08:06:44;;;;;;;17.10;7.13;;;6.30;64.20;;;;;;6281596;28;20025;-81
2021/01/02 08:09:47;;;;;;;17.85;6.55;;;6.30;64.20;;;;;;6282006;28;20036;-81
2021/01/02 08:12:50;;;;;;;15.05;6.32;;;6.30;64.10;;;;;;6297913;28;20025;-82
2021/01/02 08:15:53;;;;;;;11.40;5.78;;;6.40;64.10;;;;;;6247442;28;20033;-81
2021/01/02 08:19:06;;;;;;;15.35;6.63;;;6.30;64.80;;;;;;6274881;28;20399;-80
2021/01/02 08:22:08;;;;;;;18.67;6.70;;;6.40;64.20;;;;;;6281412;28;20044;-81
2021/01/02 08:25:17;;;;;;;14.13;6.07;;;6.60;64.20;;;;;;6266122;28;20071;-81
2021/01/02 08:28:18;;;;;;;12.13;6.35;;;6.40;63.90;;;;;;6263710;28;20020;-82
2021/01/02 08:31:20;;;;;;;13.73;6.85;;;6.50;63.90;;;;;;6283391;28;20052;-81
2021/01/02 08:34:26;;;;;;;15.35;6.95;;;6.50;63.90;;;;;;6284642;28;20048;-81
2021/01/02 08:37:28;;;;;;;15.55;5.57;;;6.50;63.80;;;;;;6264188;28;20445;-81
2021/01/02 08:40:29;;;;;;;10.57;5.53;;;6.50;63.80;;;;;;6297970;28;20048;-81
2021/01/02 08:43:33;;;;;;;13.55;6.18;;;6.50;63.70;;;;;;6277239;28;20040;-81
2021/01/02 08:46:37;;;;;;;15.73;6.95;;;6.50;63.80;;;;;;6183234;28;20461;-81
2021/01/02 08:49:44;;;;;;;20.75;6.90;;;6.50;63.80;;;;;;6241024;28;20110;-81
2021/01/02 08:52:45;;;;;;;13.93;6.43;;;6.50;63.70;;;;;;6215234;28;20083;-81
2021/01/02 08:55:47;;;;;;;11.95;5.28;;;6.50;63.60;;;;;;6235894;28;20064;-81
2021/01/02 08:58:50;;;;;;;12.77;5.95;;;6.50;63.50;;;;;;6271706;28;20081;-81
2021/01/02 09:01:53;;;;;;;20.48;6.97;;;6.60;63.30;;;;;;6262726;28;20064;-81
2021/01/02 09:05:09;;;;;;;13.00;4.78;;;6.60;63.20;;;;;;6280983;28;20337;-82
2021/01/02 09:08:16;;;;;;;25.98;7.43;;;6.60;63.70;;;;;;6286595;28;20033;-80
2021/01/02 09:11:19;;;;;;;13.50;5.88;;;6.70;62.80;;;;;;6262593;28;20472;-80
2021/01/02 09:14:21;;;;;;;13.60;6.13;;;6.70;62.70;;;;;;6297123;28;20039;-81
2021/01/02 09:17:21;;;;;;;12.23;5.75;;;6.70;62.50;;;;;;6278183;28;20349;-80
2021/01/02 09:20:23;;;;;;;12.05;4.57;;;6.70;62.40;;;;;;6268701;28;20063;-81
2021/01/02 09:23:37;;;;;;;14.45;5.43;;;6.70;62.20;;;;;;6278571;28;20052;-82
2021/01/02 09:26:38;;;;;;;15.00;7.15;;;6.70;62.10;;;;;;6262429;28;20033;-83
2021/01/02 09:29:39;;;;;;;16.23;6.95;;;6.70;62.20;;;;;;6293756;28;20024;-81
2021/01/02 09:32:40;;;;;;;12.88;5.30;;;6.70;62.20;;;;;;6286080;28;20050;-82
2021/01/02 09:35:43;;;;;;;14.98;5.18;;;6.70;62.10;;;;;;6262066;28;20030;-82
2021/01/02 09:38:44;;;;;;;14.43;7.22;;;6.80;62.10;;;;;;6269218;28;20044;-81
2021/01/02 09:41:47;;;;;;;11.80;5.65;;;6.80;62.00;;;;;;6279702;28;20380;-82
2021/01/02 09:44:47;;;;;;;15.32;6.20;;;6.80;61.90;;;;;;6262610;28;20457;-80
2021/01/02 09:47:48;;;;;;;21.15;6.97;;;6.80;61.80;;;;;;6269614;28;20028;-81
2021/01/02 09:50:50;;;;;;;13.82;6.88;;;6.80;61.70;;;;;;6263518;28;20036;-80
2021/01/02 09:53:52;;;;;;;12.20;5.53;;;6.80;61.60;;;;;;6261326;28;20032;-81
2021/01/02 09:56:52;;;;;;;18.35;7.13;;;6.90;61.70;;;;;;6266657;28;20048;-81
2021/01/02 09:59:53;;;;;;;16.10;6.13;;;6.90;61.50;;;;;;6276407;28;20036;-81
2021/01/02 10:02:55;;;;;;;15.20;7.00;;;6.90;61.40;;;;;;6277879;28;20052;-81
2021/01/02 10:05:59;;;;;;;13.07;5.30;;;7.00;61.40;;;;;;6252795;28;20151;-80
2021/01/02 10:09:00;;;;;;;14.77;6.15;;;7.00;61.20;;;;;;6225652;28;20079;-81
2021/01/02 10:12:01;;;;;;;17.75;6.60;;;7.00;60.90;;;;;;6198492;28;20038;-81
2021/01/02 10:15:05;;;;;;;18.33;7.20;;;7.10;61.00;;;;;;6274999;28;20038;-81
2021/01/02 10:21:47;;;;;;;17.52;6.60;;;7.00;60.80;;;;;;6243002;28;21132;-81
2021/01/02 10:24:59;;;;;;;17.20;7.55;;;7.00;60.70;;;;;;6217595;28;20108;-81
2021/01/02 10:28:02;;;;;;;17.27;6.45;;;7.00;60.80;;;;;;6243078;28;20041;-81
2021/01/02 10:31:03;;;;;;;12.88;5.72;;;7.10;61.00;;;;;;6229802;28;20034;-82
2021/01/02 10:34:12;;;;;;;13.88;7.38;;;7.10;60.90;;;;;;6228639;28;20044;-81
2021/01/02 10:37:37;;;;;;;14.80;6.85;;;7.10;60.80;;;;;;6233150;28;20431;-81
2021/01/02 10:40:38;;;;;;;15.07;6.57;;;7.10;60.70;;;;;;6252371;28;20052;-81
2021/01/02 10:43:39;;;;;;;11.77;5.30;;;7.10;60.80;;;;;;6238854;28;20039;-82
2021/01/02 10:46:52;;;;;;;21.92;8.27;;;7.00;61.00;;;;;;6243362;28;20040;-82
2021/01/02 10:49:53;;;;;;;16.60;6.95;;;7.00;61.00;;;;;;6240611;28;20450;-83
2021/01/02 10:52:56;;;;;;;11.30;5.95;;;7.10;61.10;;;;;;6245593;28;20037;-82
2021/01/02 10:56:17;;;;;;;10.73;5.45;;;7.00;60.80;;;;;;6236871;28;20029;-83
2021/01/02 10:59:20;;;;;;;14.15;5.95;;;7.10;61.10;;;;;;6216876;28;20457;-82
2021/01/02 11:02:22;;;;;;;16.70;5.72;;;7.10;60.70;;;;;;6269031;28;20021;-81
2021/01/02 11:05:23;;;;;;;17.98;6.95;;;7.10;60.70;;;;;;6273844;28;20040;-81
2021/01/02 11:08:24;;;;;;;17.55;6.35;;;7.10;60.80;;;;;;6255541;28;20021;-80
2021/01/02 11:11:25;;;;;;;18.52;7.60;;;7.10;60.90;;;;;;6258163;28;20335;-80
2021/01/02 11:14:26;;;;;;;21.95;7.88;;;7.10;61.00;;;;;;6241535;28;20037;-81
2021/01/02 11:17:27;;;;;;;14.98;6.75;;;7.10;61.00;;;;;;6277206;28;20025;-80
2021/01/02 11:20:28;;;;;;;20.42;7.28;;;7.10;61.20;;;;;;6246876;28;20129;-80
2021/01/02 11:23:49;;;;;;;16.33;6.97;;;7.10;61.20;;;;;;6251349;28;20029;-81
2021/01/02 11:27:17;;;;;;;21.20;6.75;;;7.10;61.20;;;;;;6137230;28;20026;-81
2021/01/02 11:30:21;;;;;;;18.33;6.03;;;7.10;61.10;;;;;;6207206;28;20056;-81
2021/01/02 11:44:09;;;;;;;;;;;;;;;;;;;;;
2021/01/02 11:48:41;;;;;;;12.45;6.05;;;7.10;61.50;;;;;;5615485;30;2596045;-81
2021/01/02 12:56:44;;;;;;;;;;;;;;;;;;;;;
2021/01/02 13:01:19;;;;;;;;;;;;;;;;;;;;;
2021/01/02 13:05:43;;;;;;;29.00;9.18;;;6.80;65.70;;;;;;6801943;24;4536918;-80
2021/01/02 13:26:24;;;;;;;19.90;7.93;;;6.80;66.00;;;;;;6235211;28;20033;-80
2021/01/02 13:29:31;;;;;;;8.32;4.32;;;6.70;66.30;;;;;;6245067;28;20061;-81
2021/01/02 13:32:32;;;;;;;18.70;7.13;;;6.70;66.60;;;;;;6222728;28;20048;-81
2021/01/02 13:35:34;;;;;;;30.92;11.02;;;6.60;66.70;;;;;;6232214;28;20057;-80
2021/01/02 13:38:36;;;;;;;23.73;9.57;;;6.60;66.90;;;;;;6225227;28;20034;-82
2021/01/02 13:41:38;;;;;;;25.42;10.38;;;6.60;67.10;;;;;;6242283;28;20026;-82
2021/01/02 13:44:40;;;;;;;28.73;10.10;;;6.60;67.20;;;;;;6243097;28;20439;-84
2021/01/02 13:47:41;;;;;;;17.77;7.68;;;6.60;67.20;;;;;;6230085;28;20341;-82
2021/01/02 13:50:43;;;;;;;24.98;9.73;;;6.70;67.30;;;;;;6222983;28;20065;-81
2021/01/02 13:53:45;;;;;;;21.83;8.55;;;6.70;67.10;;;;;;6242206;28;20339;-81
2021/01/02 13:56:51;;;;;;;27.38;9.63;;;6.70;67.00;;;;;;6215848;28;20042;-82
2021/01/02 13:59:53;;;;;;;25.85;9.65;;;6.80;66.90;;;;;;6225801;28;20088;-81
2021/01/02 14:02:54;;;;;;;29.42;11.30;;;6.80;66.90;;;;;;6259368;28;20057;-82
2021/01/02 14:05:55;;;;;;;31.02;10.50;;;6.80;66.70;;;;;;6275704;28;20136;-81
2021/01/02 14:08:57;;;;;;;16.67;7.95;;;6.80;66.50;;;;;;6272488;28;20037;-82
2021/01/02 14:11:59;;;;;;;18.13;8.10;;;6.80;66.50;;;;;;6252254;28;20081;-81
2021/01/02 14:15:00;;;;;;;22.50;8.85;;;6.80;66.70;;;;;;6303848;28;20033;-83
2021/01/02 14:18:02;;;;;;;23.50;8.98;;;6.80;66.50;;;;;;6276608;28;20113;-82
2021/01/02 14:21:04;;;;;;;25.02;9.02;;;6.70;66.50;;;;;;6252799;28;20049;-82
2021/01/02 14:24:05;;;;;;;21.55;9.32;;;6.70;66.70;;;;;;6283213;28;20024;-80
2021/01/02 14:27:08;;;;;;;28.55;9.18;;;6.60;66.80;;;;;;6279770;28;20044;-81
2021/01/02 14:30:10;;;;;;;24.38;8.75;;;6.60;67.20;;;;;;6233034;28;20069;-82
2021/01/02 14:33:13;;;;;;;20.38;8.48;;;6.60;67.20;;;;;;6224716;28;20085;-81
2021/01/02 14:36:16;;;;;;;21.85;7.88;;;6.60;67.20;;;;;;6224647;28;20091;-81
2021/01/02 14:39:17;;;;;;;15.10;7.22;;;6.60;67.20;;;;;;6236519;28;20472;-80
2021/01/02 14:42:18;;;;;;;25.30;11.00;;;6.60;67.20;;;;;;6218593;28;20503;-81
2021/01/02 14:45:19;;;;;;;17.30;6.68;;;6.60;67.30;;;;;;6247365;28;20045;-81
2021/01/02 14:48:23;;;;;;;27.80;9.95;;;6.60;67.40;;;;;;6257362;28;20037;-82
2021/01/02 14:51:34;;;;;;;22.13;8.63;;;6.60;67.30;;;;;;6225922;28;20469;-81
2021/01/02 14:54:36;;;;;;;26.17;10.30;;;6.60;67.40;;;;;;6228856;28;20034;-81
2021/01/02 14:57:36;;;;;;;34.42;9.77;;;6.60;67.40;;;;;;6236336;28;20099;-80
2021/01/02 15:00:37;;;;;;;23.95;9.50;;;6.60;67.40;;;;;;6268854;28;20042;-81
2021/01/02 15:03:38;;;;;;;21.05;9.45;;;6.60;67.60;;;;;;6300819;28;20048;-81
2021/01/02 15:06:46;;;;;;;16.48;6.40;;;6.60;67.60;;;;;;6253205;28;20045;-81
2021/01/02 15:09:47;;;;;;;27.30;9.20;;;6.60;68.50;;;;;;6271663;28;20083;-81
2021/01/02 15:12:48;;;;;;;16.45;7.18;;;6.50;67.70;;;;;;6265085;28;20417;-81
2021/01/02 15:15:49;;;;;;;29.08;9.45;;;6.50;67.70;;;;;;6249055;28;20029;-80
2021/01/02 15:18:50;;;;;;;15.25;6.55;;;6.50;67.80;;;;;;6248285;28;20051;-81
2021/01/02 15:21:51;;;;;;;26.42;10.20;;;6.60;67.80;;;;;;6248501;28;20037;-81
2021/01/02 15:24:53;;;;;;;24.33;8.77;;;6.60;67.80;;;;;;6271940;28;20128;-79
2021/01/02 15:27:54;;;;;;;24.70;8.77;;;6.60;67.90;;;;;;6275812;28;20113;-81
2021/01/02 15:30:57;;;;;;;11.43;5.78;;;6.60;68.00;;;;;;6258641;28;20551;-81
2021/01/02 15:33:59;;;;;;;23.85;9.25;;;6.60;67.80;;;;;;6273803;28;20052;-80
2021/01/02 15:37:00;;;;;;;15.30;7.55;;;6.60;67.80;;;;;;6290416;28;20241;-80
2021/01/02 15:40:01;;;;;;;18.17;7.25;;;6.50;67.80;;;;;;6296579;28;20028;-82
2021/01/02 15:43:02;;;;;;;18.00;8.23;;;6.50;67.90;;;;;;6275656;28;20374;-80
2021/01/02 15:46:09;;;;;;;17.52;7.95;;;6.50;68.10;;;;;;6264608;28;20029;-80
2021/01/02 15:49:12;;;;;;;16.88;6.63;;;6.40;68.10;;;;;;6272710;28;20025;-81
2021/01/02 15:52:20;;;;;;;19.42;7.70;;;6.50;68.30;;;;;;6253384;28;20119;-81
2021/01/02 15:55:21;;;;;;;22.13;8.65;;;6.50;68.30;;;;;;6272807;28;20044;-81
2021/01/02 15:58:22;;;;;;;22.13;8.35;;;6.50;68.30;;;;;;6298447;28;20040;-81
2021/01/02 16:01:23;;;;;;;13.52;6.22;;;6.50;68.30;;;;;;6303097;28;20368;-81
2021/01/02 16:04:25;;;;;;;17.67;8.85;;;6.50;68.40;;;;;;6264699;28;20416;-82
2021/01/02 16:07:26;;;;;;;11.90;6.15;;;6.40;68.50;;;;;;6252611;28;20468;-80
2021/01/02 16:10:27;;;;;;;15.68;6.70;;;6.40;68.70;;;;;;6249591;28;20049;-81
2021/01/02 16:13:29;;;;;;;17.23;6.10;;;6.40;68.90;;;;;;6297834;28;20048;-82
2021/01/02 16:16:31;;;;;;;18.63;7.72;;;6.40;69.10;;;;;;6281760;28;20060;-80
2021/01/02 16:19:32;;;;;;;11.93;6.32;;;6.30;69.30;;;;;;6297885;28;20097;-81
2021/01/02 16:22:33;;;;;;;14.52;5.72;;;6.40;69.40;;;;;;6264494;28;20090;-81
2021/01/02 16:25:34;;;;;;;18.63;8.18;;;6.40;69.40;;;;;;6255750;28;20345;-81
2021/01/02 16:28:36;;;;;;;12.02;5.43;;;6.30;69.40;;;;;;6281420;28;20100;-81
2021/01/02 16:31:59;;;;;;;15.48;5.88;;;6.30;69.40;;;;;;6298832;28;20036;-82
2021/01/02 16:35:00;;;;;;;11.98;5.22;;;6.30;69.50;;;;;;6298093;28;20044;-80
2021/01/02 16:38:01;;;;;;;13.43;5.18;;;6.30;69.60;;;;;;6292836;28;20051;-82
2021/01/02 16:41:02;;;;;;;19.95;7.65;;;6.30;69.70;;;;;;6280016;28;20067;-82
2021/01/02 16:44:04;;;;;;;16.80;7.80;;;6.30;69.80;;;;;;6298593;28;20101;-80
2021/01/02 16:47:10;;;;;;;20.10;7.90;;;6.40;70.20;;;;;;6304064;28;20040;-82
2021/01/02 16:50:12;;;;;;;21.25;7.63;;;6.40;70.20;;;;;;6314836;28;20401;-80
2021/01/02 16:53:14;;;;;;;17.30;8.82;;;6.40;70.00;;;;;;6283938;28;20043;-80
2021/01/02 16:56:15;;;;;;;18.52;5.80;;;6.40;69.80;;;;;;6285080;28;20039;-81
2021/01/02 16:59:19;;;;;;;14.52;6.68;;;6.50;69.70;;;;;;6311318;28;20466;-82
2021/01/02 17:02:20;;;;;;;13.43;5.60;;;6.50;69.60;;;;;;6273928;28;20033;-80
2021/01/02 17:05:21;;;;;;;13.70;6.07;;;6.50;69.70;;;;;;6272428;28;20032;-79
2021/01/02 17:08:23;;;;;;;11.88;3.72;;;6.50;69.50;;;;;;6269842;28;20097;-80
2021/01/02 17:11:32;;;;;;;17.05;5.32;;;6.50;69.40;;;;;;6284918;28;20064;-81
2021/01/02 17:14:32;;;;;;;;;;;6.50;69.40;;;;;;6272527;28;20051;-80
2021/01/02 17:17:33;;;;;;;11.07;4.63;;;6.50;69.30;;;;;;6282758;28;19913;-82
2021/01/02 17:20:34;;;;;;;17.15;6.53;;;6.50;69.20;;;;;;6272572;28;20048;-81
2021/01/02 17:23:37;;;;;;;9.90;4.55;;;6.40;69.10;;;;;;6255111;28;20111;-82
2021/01/02 17:26:39;;;;;;;18.27;7.05;;;6.50;69.30;;;;;;6268167;28;20035;-81
2021/01/02 17:29:41;;;;;;;14.85;6.22;;;6.50;69.30;;;;;;6252650;28;20045;-82
2021/01/02 17:32:42;;;;;;;15.18;6.80;;;6.50;69.20;;;;;;6270714;28;20124;-81
2021/01/02 17:35:46;;;;;;;10.63;4.57;;;6.50;69.00;;;;;;6245736;28;20029;-81
2021/01/02 17:38:52;;;;;;;16.60;7.10;;;6.50;69.00;;;;;;6254395;28;20029;-81
2021/01/02 17:41:59;;;;;;;21.20;7.13;;;6.50;68.80;;;;;;6270140;28;20041;-80
2021/01/02 17:45:00;;;;;;;19.42;6.78;;;6.50;68.80;;;;;;6296005;28;20060;-82
2021/01/02 17:48:01;;;;;;;14.43;6.63;;;6.50;68.80;;;;;;6276359;28;20058;-81
2021/01/02 17:51:02;;;;;;;8.98;4.13;;;6.60;68.70;;;;;;6302923;28;20052;-82
2021/01/02 17:54:03;;;;;;;12.93;5.40;;;6.60;68.60;;;;;;6280880;28;20096;-82
2021/01/02 17:57:04;;;;;;;11.02;5.43;;;6.60;68.40;;;;;;6309063;28;20056;-82
2021/01/02 18:00:06;;;;;;;16.05;6.43;;;6.70;67.90;;;;;;6272116;28;20049;-81
2021/01/02 18:03:12;;;;;;;15.63;6.03;;;6.70;67.90;;;;;;6260848;28;20049;-84
2021/01/02 18:07:01;;;;;;;18.42;5.93;;;6.70;67.60;;;;;;6265728;28;20368;-83